sensor_id;sensor_type;location;lat;lon;timestamp;pressure;altitude;pressure_sealevel;temperature;humidity
11987;BME280;6053;51.382;6.768;2023-08-06T00:00:38;100084.13;;;17.46;100.00
11987;BME280;6053;51.382;6.768;2023-08-06T00:03:13;100078.00;;;18.40;100.00
11987;BME280;6053;51.382;6.768;2023-08-06T00:06:00;100077.41;;;19.33;100.00
11987;BME280;6053;51.382;6.768;2023-08-06T00:08:29;100087.72;;;19.65;100.00
11987;BME280;6053;51.382;6.768;2023-08-06T00:10:59;100082.16;;;19.32;100.00
11987;BME280;6053;51.382;6.768;2023-08-06T00:13:27;100078.63;;;19.26;100.00
11987;BME280;6053;51.382;6.768;2023-08-06T00:16:10;100074.03;;;19.17;100.00
11987;BME280;6053;51.382;6.768;2023-08-06T00:18:39;100077.19;;;19.29;100.00
11987;BME280;6053;51.382;6.768;2023-08-06T00:21:11;100066.22;;;19.33;100.00
11987;BME280;6053;51.382;6.768;2023-08-06T00:23:46;100057.03;;;19.60;100.00
11987;BME280;6053;51.382;6.768;2023-08-06T00:26:18;100057.00;;;18.99;100.00
11987;BME280;6053;51.382;6.768;2023-08-06T00:28:47;100058.59;;;19.05;100.00
11987;BME280;6053;51.382;6.768;2023-08-06T00:31:15;100049.84;;;18.55;100.00
11987;BME280;6053;51.382;6.768;2023-08-06T00:33:56;100054.31;;;19.41;100.00
11987;BME280;6053;51.382;6.768;2023-08-06T00:36:24;100055.16;;;18.76;100.00
11987;BME280;6053;51.382;6.768;2023-08-06T00:38:53;100056.66;;;19.20;100.00
11987;BME280;6053;51.382;6.768;2023-08-06T00:41:24;100049.16;;;19.62;100.00
11987;BME280;6053;51.382;6.768;2023-08-06T00:43:53;100051.66;;;19.91;100.00
11987;BME280;6053;51.382;6.768;2023-08-06T00:46:21;100049.59;;;19.96;100.00
11987;BME280;6053;51.382;6.768;2023-08-06T00:48:51;100046.47;;;20.12;100.00
11987;BME280;6053;51.382;6.768;2023-08-06T00:51:20;100056.41;;;20.18;100.00
11987;BME280;6053;51.382;6.768;2023-08-06T00:53:50;100050.91;;;20.27;100.00
11987;BME280;6053;51.382;6.768;2023-08-06T00:56:20;100044.69;;;20.30;100.00
11987;BME280;6053;51.382;6.768;2023-08-06T00:58:53;100045.34;;;20.13;100.00
11987;BME280;6053;51.382;6.768;2023-08-06T01:01:22;100046.06;;;19.91;100.00
11987;BME280;6053;51.382;6.768;2023-08-06T01:03:50;100048.88;;;19.91;100.00
11987;BME280;6053;51.382;6.768;2023-08-06T01:06:22;100043.16;;;20.10;100.00
11987;BME280;6053;51.382;6.768;2023-08-06T01:08:56;100050.81;;;20.18;100.00
11987;BME280;6053;51.382;6.768;2023-08-06T01:11:37;100046.75;;;20.24;100.00
11987;BME280;6053;51.382;6.768;2023-08-06T01:14:21;100041.28;;;20.05;100.00
11987;BME280;6053;51.382;6.768;2023-08-06T01:16:51;100029.59;;;20.03;100.00
11987;BME280;6053;51.382;6.768;2023-08-06T01:19:22;100035.22;;;19.75;100.00
11987;BME280;6053;51.382;6.768;2023-08-06T01:21:51;100029.41;;;19.12;100.00
11987;BME280;6053;51.382;6.768;2023-08-06T01:24:21;100032.66;;;19.46;100.00
11987;BME280;6053;51.382;6.768;2023-08-06T01:26:59;100030.94;;;19.64;100.00
11987;BME280;6053;51.382;6.768;2023-08-06T01:29:34;100040.47;;;19.17;100.00
11987;BME280;6053;51.382;6.768;2023-08-06T01:32:08;100038.88;;;19.43;100.00
11987;BME280;6053;51.382;6.768;2023-08-06T01:34:40;100036.25;;;19.66;100.00
11987;BME280;6053;51.382;6.768;2023-08-06T01:37:11;100031.56;;;19.75;100.00
11987;BME280;6053;51.382;6.768;2023-08-06T01:39:42;100036.91;;;19.44;100.00
11987;BME280;6053;51.382;6.768;2023-08-06T01:42:13;100036.00;;;19.48;100.00
11987;BME280;6053;51.382;6.768;2023-08-06T01:44:42;100034.84;;;19.36;100.00
11987;BME280;6053;51.382;6.768;2023-08-06T01:47:10;100027.59;;;19.48;100.00
11987;BME280;6053;51.382;6.768;2023-08-06T01:49:39;100024.09;;;19.70;100.00
11987;BME280;6053;51.382;6.768;2023-08-06T01:52:15;100021.41;;;19.93;100.00
11987;BME280;6053;51.382;6.768;2023-08-06T01:54:50;100018.28;;;19.94;100.00
11987;BME280;6053;51.382;6.768;2023-08-06T01:57:18;100018.91;;;19.77;100.00
11987;BME280;6053;51.382;6.768;2023-08-06T01:59:47;100015.41;;;19.72;100.00
11987;BME280;6053;51.382;6.768;2023-08-06T02:02:15;100018.63;;;19.05;100.00
11987;BME280;6053;51.382;6.768;2023-08-06T02:04:44;100003.03;;;19.45;100.00
11987;BME280;6053;51.382;6.768;2023-08-06T02:07:12;100009.25;;;19.42;100.00
11987;BME280;6053;51.382;6.768;2023-08-06T02:09:48;100016.78;;;19.28;100.00
11987;BME280;6053;51.382;6.768;2023-08-06T02:12:17;100010.72;;;19.67;100.00
11987;BME280;6053;51.382;6.768;2023-08-06T02:14:46;100017.06;;;18.80;100.00
11987;BME280;6053;51.382;6.768;2023-08-06T02:17:20;100008.91;;;19.30;100.00
11987;BME280;6053;51.382;6.768;2023-08-06T02:19:48;100007.69;;;19.36;100.00
11987;BME280;6053;51.382;6.768;2023-08-06T02:22:16;100012.25;;;18.86;100.00
11987;BME280;6053;51.382;6.768;2023-08-06T02:24:45;100004.97;;;19.31;100.00
11987;BME280;6053;51.382;6.768;2023-08-06T02:27:18;100007.31;;;19.70;100.00
11987;BME280;6053;51.382;6.768;2023-08-06T02:29:47;100004.09;;;19.77;100.00
11987;BME280;6053;51.382;6.768;2023-08-06T02:32:15;100003.06;;;19.73;100.00
11987;BME280;6053;51.382;6.768;2023-08-06T02:34:47;100007.09;;;19.94;100.00
11987;BME280;6053;51.382;6.768;2023-08-06T02:37:15;99997.44;;;20.00;100.00
11987;BME280;6053;51.382;6.768;2023-08-06T02:39:44;99999.28;;;20.05;100.00
11987;BME280;6053;51.382;6.768;2023-08-06T02:42:17;99989.97;;;20.10;100.00
11987;BME280;6053;51.382;6.768;2023-08-06T02:44:45;99993.38;;;19.51;100.00
11987;BME280;6053;51.382;6.768;2023-08-06T02:47:14;99998.91;;;19.84;100.00
11987;BME280;6053;51.382;6.768;2023-08-06T02:49:46;100001.19;;;19.96;100.00
11987;BME280;6053;51.382;6.768;2023-08-06T02:52:14;99993.22;;;19.89;100.00
11987;BME280;6053;51.382;6.768;2023-08-06T02:54:43;99987.09;;;19.87;100.00
11987;BME280;6053;51.382;6.768;2023-08-06T02:57:22;99990.00;;;19.96;100.00
11987;BME280;6053;51.382;6.768;2023-08-06T03:00:00;99987.16;;;20.10;100.00
11987;BME280;6053;51.382;6.768;2023-08-06T03:02:40;99980.59;;;20.14;100.00
11987;BME280;6053;51.382;6.768;2023-08-06T03:05:09;99982.75;;;19.67;100.00
11987;BME280;6053;51.382;6.768;2023-08-06T03:07:48;99980.00;;;19.35;100.00
11987;BME280;6053;51.382;6.768;2023-08-06T03:10:20;99973.84;;;19.79;100.00
11987;BME280;6053;51.382;6.768;2023-08-06T03:12:53;99968.25;;;18.91;100.00
11987;BME280;6053;51.382;6.768;2023-08-06T03:15:21;99970.38;;;19.41;100.00
11987;BME280;6053;51.382;6.768;2023-08-06T03:17:56;99966.75;;;19.82;100.00
11987;BME280;6053;51.382;6.768;2023-08-06T03:20:26;99965.00;;;19.99;100.00
11987;BME280;6053;51.382;6.768;2023-08-06T03:22:54;99961.34;;;20.13;100.00
11987;BME280;6053;51.382;6.768;2023-08-06T03:25:23;99961.91;;;20.23;100.00
11987;BME280;6053;51.382;6.768;2023-08-06T03:27:53;99969.25;;;20.33;100.00
11987;BME280;6053;51.382;6.768;2023-08-06T03:30:21;99971.72;;;20.35;100.00
11987;BME280;6053;51.382;6.768;2023-08-06T03:32:56;99964.28;;;20.30;100.00
11987;BME280;6053;51.382;6.768;2023-08-06T03:35:24;99967.81;;;20.22;100.00
11987;BME280;6053;51.382;6.768;2023-08-06T03:37:53;99968.88;;;20.26;100.00
11987;BME280;6053;51.382;6.768;2023-08-06T03:40:25;99960.97;;;19.78;100.00
11987;BME280;6053;51.382;6.768;2023-08-06T03:42:55;99961.78;;;19.51;100.00
11987;BME280;6053;51.382;6.768;2023-08-06T03:45:26;99969.28;;;19.69;100.00
11987;BME280;6053;51.382;6.768;2023-08-06T03:48:01;99959.56;;;18.93;100.00
11987;BME280;6053;51.382;6.768;2023-08-06T03:50:32;99958.00;;;18.35;100.00
11987;BME280;6053;51.382;6.768;2023-08-06T03:53:07;99959.75;;;17.93;100.00
11987;BME280;6053;51.382;6.768;2023-08-06T03:55:38;99956.97;;;18.31;100.00
11987;BME280;6053;51.382;6.768;2023-08-06T03:58:16;99970.00;;;17.31;100.00
11987;BME280;6053;51.382;6.768;2023-08-06T04:00:56;99968.56;;;17.57;100.00
11987;BME280;6053;51.382;6.768;2023-08-06T04:03:30;99957.78;;;18.31;100.00
11987;BME280;6053;51.382;6.768;2023-08-06T04:05:59;99953.75;;;18.75;100.00
11987;BME280;6053;51.382;6.768;2023-08-06T04:08:28;99963.81;;;18.90;100.00
11987;BME280;6053;51.382;6.768;2023-08-06T04:10:59;99957.78;;;18.31;100.00
11987;BME280;6053;51.382;6.768;2023-08-06T04:13:38;99967.94;;;18.79;100.00
11987;BME280;6053;51.382;6.768;2023-08-06T04:16:06;99952.91;;;18.04;100.00
11987;BME280;6053;51.382;6.768;2023-08-06T04:18:38;99959.00;;;18.25;100.00
11987;BME280;6053;51.382;6.768;2023-08-06T04:21:06;99962.63;;;18.77;100.00
11987;BME280;6053;51.382;6.768;2023-08-06T04:23:37;99952.38;;;19.19;100.00
11987;BME280;6053;51.382;6.768;2023-08-06T04:26:06;99957.78;;;19.71;100.00
11987;BME280;6053;51.382;6.768;2023-08-06T04:28:43;99953.47;;;20.01;100.00
11987;BME280;6053;51.382;6.768;2023-08-06T04:31:12;99954.91;;;20.12;100.00
11987;BME280;6053;51.382;6.768;2023-08-06T04:33:40;99967.38;;;20.29;100.00
11987;BME280;6053;51.382;6.768;2023-08-06T04:36:09;99960.13;;;20.28;100.00
11987;BME280;6053;51.382;6.768;2023-08-06T04:38:38;99963.94;;;20.32;100.00
11987;BME280;6053;51.382;6.768;2023-08-06T04:41:08;99960.31;;;20.31;100.00
11987;BME280;6053;51.382;6.768;2023-08-06T04:43:40;99960.03;;;20.33;100.00
11987;BME280;6053;51.382;6.768;2023-08-06T04:46:10;99956.91;;;20.34;100.00
11987;BME280;6053;51.382;6.768;2023-08-06T04:48:42;99965.50;;;20.38;100.00
11987;BME280;6053;51.382;6.768;2023-08-06T04:51:12;99964.38;;;20.39;100.00
11987;BME280;6053;51.382;6.768;2023-08-06T04:53:41;99960.06;;;20.41;100.00
11987;BME280;6053;51.382;6.768;2023-08-06T04:56:13;99948.38;;;20.39;100.00
11987;BME280;6053;51.382;6.768;2023-08-06T04:58:43;99957.91;;;20.38;100.00
11987;BME280;6053;51.382;6.768;2023-08-06T05:01:13;99965.28;;;20.34;100.00
11987;BME280;6053;51.382;6.768;2023-08-06T05:03:42;99966.56;;;20.28;100.00
11987;BME280;6053;51.382;6.768;2023-08-06T05:06:14;99969.78;;;20.21;100.00
11987;BME280;6053;51.382;6.768;2023-08-06T05:08:42;99962.03;;;20.18;100.00
11987;BME280;6053;51.382;6.768;2023-08-06T05:11:11;99968.97;;;20.21;100.00
11987;BME280;6053;51.382;6.768;2023-08-06T05:13:45;99965.88;;;20.22;100.00
11987;BME280;6053;51.382;6.768;2023-08-06T05:16:15;99972.97;;;20.29;100.00
11987;BME280;6053;51.382;6.768;2023-08-06T05:18:44;99969.44;;;20.37;100.00
11987;BME280;6053;51.382;6.768;2023-08-06T05:21:12;99964.47;;;20.34;100.00
11987;BME280;6053;51.382;6.768;2023-08-06T05:23:44;99975.47;;;20.30;100.00
11987;BME280;6053;51.382;6.768;2023-08-06T05:26:15;99976.06;;;20.41;100.00
11987;BME280;6053;51.382;6.768;2023-08-06T05:28:45;99983.31;;;19.09;100.00
11987;BME280;6053;51.382;6.768;2023-08-06T05:31:18;99983.69;;;18.70;100.00
11987;BME280;6053;51.382;6.768;2023-08-06T05:33:46;99989.59;;;18.68;100.00
11987;BME280;6053;51.382;6.768;2023-08-06T05:36:15;99986.56;;;18.83;100.00
11987;BME280;6053;51.382;6.768;2023-08-06T05:38:45;99976.81;;;19.27;100.00
11987;BME280;6053;51.382;6.768;2023-08-06T05:41:13;99989.97;;;18.61;100.00
11987;BME280;6053;51.382;6.768;2023-08-06T05:43:42;99983.66;;;18.37;100.00
11987;BME280;6053;51.382;6.768;2023-08-06T05:46:15;99982.91;;;18.12;100.00
11987;BME280;6053;51.382;6.768;2023-08-06T05:48:44;99988.75;;;18.68;100.00
11987;BME280;6053;51.382;6.768;2023-08-06T05:51:12;99988.72;;;19.19;100.00
11987;BME280;6053;51.382;6.768;2023-08-06T05:53:46;99995.41;;;17.96;100.00
11987;BME280;6053;51.382;6.768;2023-08-06T05:56:22;99998.16;;;18.20;100.00
11987;BME280;6053;51.382;6.768;2023-08-06T05:58:54;100002.97;;;18.71;100.00
11987;BME280;6053;51.382;6.768;2023-08-06T06:01:24;99995.47;;;19.46;100.00
11987;BME280;6053;51.382;6.768;2023-08-06T06:03:59;99995.47;;;20.37;100.00
11987;BME280;6053;51.382;6.768;2023-08-06T06:06:27;99999.38;;;20.50;100.00
11987;BME280;6053;51.382;6.768;2023-08-06T06:08:59;99997.97;;;21.60;100.00
11987;BME280;6053;51.382;6.768;2023-08-06T06:11:27;100001.47;;;21.12;100.00
11987;BME280;6053;51.382;6.768;2023-08-06T06:14:08;100010.16;;;21.02;100.00
11987;BME280;6053;51.382;6.768;2023-08-06T06:16:40;100012.69;;;21.12;100.00
11987;BME280;6053;51.382;6.768;2023-08-06T06:19:12;100019.09;;;21.04;100.00
11987;BME280;6053;51.382;6.768;2023-08-06T06:21:43;100022.94;;;21.70;100.00
11987;BME280;6053;51.382;6.768;2023-08-06T06:24:17;100017.22;;;21.93;100.00
11987;BME280;6053;51.382;6.768;2023-08-06T06:26:46;100019.38;;;21.47;100.00
11987;BME280;6053;51.382;6.768;2023-08-06T06:29:17;100021.63;;;22.68;100.00
11987;BME280;6053;51.382;6.768;2023-08-06T06:31:53;100016.47;;;24.58;100.00
11987;BME280;6053;51.382;6.768;2023-08-06T06:34:26;100029.84;;;24.82;100.00
11987;BME280;6053;51.382;6.768;2023-08-06T06:37:00;100030.50;;;24.37;100.00
11987;BME280;6053;51.382;6.768;2023-08-06T06:39:35;100036.84;;;22.58;100.00
11987;BME280;6053;51.382;6.768;2023-08-06T06:42:04;100026.75;;;20.89;100.00
11987;BME280;6053;51.382;6.768;2023-08-06T06:44:33;100023.78;;;21.79;100.00
11987;BME280;6053;51.382;6.768;2023-08-06T06:47:03;100024.41;;;20.46;100.00
11987;BME280;6053;51.382;6.768;2023-08-06T06:49:37;100031.03;;;19.87;100.00
11987;BME280;6053;51.382;6.768;2023-08-06T06:52:09;100031.31;;;19.44;100.00
11987;BME280;6053;51.382;6.768;2023-08-06T06:54:45;100027.59;;;19.62;100.00
11987;BME280;6053;51.382;6.768;2023-08-06T06:57:14;100022.84;;;20.04;100.00
11987;BME280;6053;51.382;6.768;2023-08-06T06:59:55;100022.03;;;19.76;100.00
11987;BME280;6053;51.382;6.768;2023-08-06T07:02:25;100027.22;;;19.83;100.00
11987;BME280;6053;51.382;6.768;2023-08-06T07:04:57;100022.50;;;19.37;100.00
11987;BME280;6053;51.382;6.768;2023-08-06T07:07:28;100027.78;;;20.21;100.00
11987;BME280;6053;51.382;6.768;2023-08-06T07:10:03;100030.78;;;21.99;100.00
11987;BME280;6053;51.382;6.768;2023-08-06T07:12:35;100025.53;;;21.58;100.00
11987;BME280;6053;51.382;6.768;2023-08-06T07:15:05;100021.59;;;22.16;100.00
11987;BME280;6053;51.382;6.768;2023-08-06T07:17:43;100024.00;;;20.98;100.00
11987;BME280;6053;51.382;6.768;2023-08-06T07:20:12;100033.72;;;21.85;100.00
11987;BME280;6053;51.382;6.768;2023-08-06T07:22:40;100030.53;;;23.22;100.00
11987;BME280;6053;51.382;6.768;2023-08-06T07:25:09;100038.34;;;23.72;100.00
11987;BME280;6053;51.382;6.768;2023-08-06T07:27:38;100038.81;;;23.10;100.00
11987;BME280;6053;51.382;6.768;2023-08-06T07:30:07;100031.47;;;19.80;100.00
11987;BME280;6053;51.382;6.768;2023-08-06T07:32:37;100038.22;;;19.79;100.00
11987;BME280;6053;51.382;6.768;2023-08-06T07:35:09;100036.47;;;19.23;100.00
11987;BME280;6053;51.382;6.768;2023-08-06T07:37:46;100047.25;;;19.43;100.00
11987;BME280;6053;51.382;6.768;2023-08-06T07:40:17;100035.28;;;19.70;100.00
11987;BME280;6053;51.382;6.768;2023-08-06T07:42:49;100043.09;;;20.37;100.00
11987;BME280;6053;51.382;6.768;2023-08-06T07:45:18;100041.28;;;19.91;100.00
11987;BME280;6053;51.382;6.768;2023-08-06T07:47:54;100039.94;;;19.75;100.00
11987;BME280;6053;51.382;6.768;2023-08-06T07:50:22;100041.53;;;19.35;100.00
11987;BME280;6053;51.382;6.768;2023-08-06T07:52:51;100053.19;;;20.24;100.00
11987;BME280;6053;51.382;6.768;2023-08-06T07:55:19;100040.44;;;20.68;100.00
11987;BME280;6053;51.382;6.768;2023-08-06T07:57:48;100044.91;;;20.69;100.00
11987;BME280;6053;51.382;6.768;2023-08-06T08:00:17;100045.72;;;21.15;100.00
11987;BME280;6053;51.382;6.768;2023-08-06T08:02:53;100041.81;;;21.87;100.00
11987;BME280;6053;51.382;6.768;2023-08-06T08:05:22;100048.31;;;21.65;100.00
11987;BME280;6053;51.382;6.768;2023-08-06T08:07:50;100052.34;;;21.19;100.00
11987;BME280;6053;51.382;6.768;2023-08-06T08:10:19;100055.16;;;22.30;100.00
11987;BME280;6053;51.382;6.768;2023-08-06T08:12:48;100051.91;;;22.71;100.00
11987;BME280;6053;51.382;6.768;2023-08-06T08:15:16;100061.84;;;22.95;100.00
11987;BME280;6053;51.382;6.768;2023-08-06T08:17:45;100059.03;;;22.95;100.00
11987;BME280;6053;51.382;6.768;2023-08-06T08:20:17;100062.34;;;23.70;100.00
11987;BME280;6053;51.382;6.768;2023-08-06T08:22:55;100063.56;;;23.43;100.00
11987;BME280;6053;51.382;6.768;2023-08-06T08:25:32;100055.69;;;21.83;100.00
11987;BME280;6053;51.382;6.768;2023-08-06T08:28:01;100056.63;;;21.79;100.00
11987;BME280;6053;51.382;6.768;2023-08-06T08:30:30;100058.53;;;22.01;100.00
11987;BME280;6053;51.382;6.768;2023-08-06T08:33:01;100066.75;;;21.49;100.00
11987;BME280;6053;51.382;6.768;2023-08-06T08:35:31;100064.00;;;21.12;100.00
11987;BME280;6053;51.382;6.768;2023-08-06T08:38:03;100065.03;;;20.94;100.00
11987;BME280;6053;51.382;6.768;2023-08-06T08:40:39;100064.69;;;21.09;100.00
11987;BME280;6053;51.382;6.768;2023-08-06T08:43:14;100064.84;;;20.90;100.00
11987;BME280;6053;51.382;6.768;2023-08-06T08:45:44;100064.34;;;20.66;100.00
11987;BME280;6053;51.382;6.768;2023-08-06T08:48:17;100062.41;;;20.53;100.00
11987;BME280;6053;51.382;6.768;2023-08-06T08:50:49;100066.66;;;20.36;100.00
11987;BME280;6053;51.382;6.768;2023-08-06T08:53:25;100073.34;;;19.99;100.00
11987;BME280;6053;51.382;6.768;2023-08-06T08:55:55;100070.22;;;20.00;100.00
11987;BME280;6053;51.382;6.768;2023-08-06T08:58:30;100070.63;;;19.20;100.00
11987;BME280;6053;51.382;6.768;2023-08-06T09:01:01;100066.75;;;20.31;100.00
11987;BME280;6053;51.382;6.768;2023-08-06T09:03:30;100071.19;;;20.60;100.00
11987;BME280;6053;51.382;6.768;2023-08-06T09:06:02;100074.06;;;19.77;100.00
11987;BME280;6053;51.382;6.768;2023-08-06T09:08:34;100078.84;;;19.76;100.00
11987;BME280;6053;51.382;6.768;2023-08-06T09:11:05;100085.13;;;19.68;100.00
11987;BME280;6053;51.382;6.768;2023-08-06T09:13:38;100086.28;;;20.86;100.00
11987;BME280;6053;51.382;6.768;2023-08-06T09:16:06;100084.50;;;20.40;100.00
11987;BME280;6053;51.382;6.768;2023-08-06T09:18:41;100086.91;;;20.83;100.00
11987;BME280;6053;51.382;6.768;2023-08-06T09:21:15;100082.19;;;21.15;100.00
11987;BME280;6053;51.382;6.768;2023-08-06T09:23:44;100089.16;;;20.31;100.00
11987;BME280;6053;51.382;6.768;2023-08-06T09:26:20;100088.56;;;21.07;100.00
11987;BME280;6053;51.382;6.768;2023-08-06T09:28:49;100094.47;;;20.05;100.00
11987;BME280;6053;51.382;6.768;2023-08-06T09:31:18;100097.06;;;19.88;100.00
11987;BME280;6053;51.382;6.768;2023-08-06T09:33:46;100101.63;;;20.25;100.00
11987;BME280;6053;51.382;6.768;2023-08-06T09:36:18;100109.91;;;19.75;100.00
11987;BME280;6053;51.382;6.768;2023-08-06T09:38:46;100104.16;;;18.87;100.00
11987;BME280;6053;51.382;6.768;2023-08-06T09:41:26;100102.97;;;18.50;100.00
11987;BME280;6053;51.382;6.768;2023-08-06T09:43:59;100106.44;;;19.50;100.00
11987;BME280;6053;51.382;6.768;2023-08-06T09:46:29;100106.38;;;20.52;100.00
11987;BME280;6053;51.382;6.768;2023-08-06T09:49:00;100105.13;;;20.58;100.00
11987;BME280;6053;51.382;6.768;2023-08-06T09:51:30;100103.78;;;20.92;100.00
11987;BME280;6053;51.382;6.768;2023-08-06T09:54:02;100110.88;;;20.12;100.00
11987;BME280;6053;51.382;6.768;2023-08-06T09:56:53;100106.53;;;21.51;100.00
11987;BME280;6053;51.382;6.768;2023-08-06T09:59:22;100108.69;;;21.31;100.00
11987;BME280;6053;51.382;6.768;2023-08-06T10:01:52;100103.38;;;21.44;100.00
11987;BME280;6053;51.382;6.768;2023-08-06T10:04:24;100106.59;;;20.28;100.00
11987;BME280;6053;51.382;6.768;2023-08-06T10:07:06;100120.88;;;20.68;100.00
11987;BME280;6053;51.382;6.768;2023-08-06T10:09:37;100120.34;;;19.55;100.00
11987;BME280;6053;51.382;6.768;2023-08-06T10:12:06;100118.03;;;20.04;100.00
11987;BME280;6053;51.382;6.768;2023-08-06T10:14:40;100126.63;;;19.94;100.00
11987;BME280;6053;51.382;6.768;2023-08-06T10:17:12;100115.03;;;20.00;100.00
11987;BME280;6053;51.382;6.768;2023-08-06T10:19:41;100118.63;;;20.42;100.00
11987;BME280;6053;51.382;6.768;2023-08-06T10:22:15;100120.22;;;20.07;100.00
11987;BME280;6053;51.382;6.768;2023-08-06T10:24:51;100119.56;;;20.38;100.00
11987;BME280;6053;51.382;6.768;2023-08-06T10:27:21;100127.56;;;20.03;100.00
11987;BME280;6053;51.382;6.768;2023-08-06T10:29:50;100129.84;;;19.54;100.00
11987;BME280;6053;51.382;6.768;2023-08-06T10:32:19;100139.47;;;19.16;100.00
11987;BME280;6053;51.382;6.768;2023-08-06T10:35:01;100143.66;;;18.37;100.00
11987;BME280;6053;51.382;6.768;2023-08-06T10:37:36;100147.16;;;18.48;100.00
11987;BME280;6053;51.382;6.768;2023-08-06T10:40:07;100144.28;;;18.53;100.00
11987;BME280;6053;51.382;6.768;2023-08-06T10:42:42;100150.47;;;18.50;100.00
11987;BME280;6053;51.382;6.768;2023-08-06T10:45:15;100157.16;;;17.82;100.00
11987;BME280;6053;51.382;6.768;2023-08-06T10:47:44;100165.97;;;18.19;100.00
11987;BME280;6053;51.382;6.768;2023-08-06T10:50:14;100166.72;;;17.71;100.00
11987;BME280;6053;51.382;6.768;2023-08-06T10:52:45;100173.66;;;18.03;100.00
11987;BME280;6053;51.382;6.768;2023-08-06T10:55:21;100179.41;;;17.58;100.00
11987;BME280;6053;51.382;6.768;2023-08-06T10:57:54;100174.75;;;17.49;100.00
11987;BME280;6053;51.382;6.768;2023-08-06T11:00:23;100180.81;;;17.22;100.00
11987;BME280;6053;51.382;6.768;2023-08-06T11:02:58;100185.25;;;17.28;100.00
11987;BME280;6053;51.382;6.768;2023-08-06T11:05:27;100189.81;;;17.82;100.00
11987;BME280;6053;51.382;6.768;2023-08-06T11:08:02;100187.59;;;17.79;100.00
11987;BME280;6053;51.382;6.768;2023-08-06T11:10:33;100199.31;;;17.76;100.00
11987;BME280;6053;51.382;6.768;2023-08-06T11:13:05;100199.59;;;17.45;100.00
11987;BME280;6053;51.382;6.768;2023-08-06T11:15:35;100197.09;;;17.73;100.00
11987;BME280;6053;51.382;6.768;2023-08-06T11:18:10;100191.56;;;18.02;100.00
11987;BME280;6053;51.382;6.768;2023-08-06T11:20:39;100195.28;;;18.16;100.00
11987;BME280;6053;51.382;6.768;2023-08-06T11:23:11;100193.75;;;17.07;100.00
11987;BME280;6053;51.382;6.768;2023-08-06T11:25:47;100200.19;;;17.71;100.00
11987;BME280;6053;51.382;6.768;2023-08-06T11:28:15;100197.63;;;17.80;100.00
11987;BME280;6053;51.382;6.768;2023-08-06T11:30:47;100200.03;;;17.23;100.00
11987;BME280;6053;51.382;6.768;2023-08-06T11:33:20;100197.66;;;17.75;100.00
11987;BME280;6053;51.382;6.768;2023-08-06T11:35:50;100195.34;;;17.18;100.00
11987;BME280;6053;51.382;6.768;2023-08-06T11:38:24;100214.94;;;17.42;100.00
11987;BME280;6053;51.382;6.768;2023-08-06T11:40:55;100224.28;;;17.23;100.00
11987;BME280;6053;51.382;6.768;2023-08-06T11:43:24;100227.38;;;17.55;100.00
11987;BME280;6053;51.382;6.768;2023-08-06T11:45:54;100222.56;;;16.87;100.00
11987;BME280;6053;51.382;6.768;2023-08-06T11:48:23;100227.13;;;17.17;100.00
11987;BME280;6053;51.382;6.768;2023-08-06T11:50:55;100222.06;;;16.80;100.00
11987;BME280;6053;51.382;6.768;2023-08-06T11:53:28;100233.47;;;16.73;100.00
11987;BME280;6053;51.382;6.768;2023-08-06T11:56:00;100239.38;;;16.62;100.00
11987;BME280;6053;51.382;6.768;2023-08-06T11:58:29;100239.94;;;17.53;100.00
11987;BME280;6053;51.382;6.768;2023-08-06T12:00:58;100248.22;;;17.63;100.00
11987;BME280;6053;51.382;6.768;2023-08-06T12:03:38;100244.41;;;17.54;100.00
11987;BME280;6053;51.382;6.768;2023-08-06T12:06:07;100236.00;;;17.25;100.00
11987;BME280;6053;51.382;6.768;2023-08-06T12:08:40;100250.19;;;17.28;100.00
11987;BME280;6053;51.382;6.768;2023-08-06T12:11:09;100256.66;;;17.58;100.00
11987;BME280;6053;51.382;6.768;2023-08-06T12:13:41;100254.50;;;18.13;100.00
11987;BME280;6053;51.382;6.768;2023-08-06T12:16:11;100262.69;;;17.70;100.00
11987;BME280;6053;51.382;6.768;2023-08-06T12:18:44;100259.03;;;17.75;100.00
11987;BME280;6053;51.382;6.768;2023-08-06T12:21:12;100265.28;;;17.61;100.00
11987;BME280;6053;51.382;6.768;2023-08-06T12:23:42;100275.06;;;17.59;100.00
11987;BME280;6053;51.382;6.768;2023-08-06T12:26:11;100269.50;;;17.54;100.00
11987;BME280;6053;51.382;6.768;2023-08-06T12:28:39;100260.69;;;16.92;100.00
11987;BME280;6053;51.382;6.768;2023-08-06T12:31:10;100273.94;;;17.20;100.00
11987;BME280;6053;51.382;6.768;2023-08-06T12:33:41;100265.13;;;17.82;100.00
11987;BME280;6053;51.382;6.768;2023-08-06T12:36:10;100269.16;;;17.60;100.00
11987;BME280;6053;51.382;6.768;2023-08-06T12:38:38;100271.94;;;17.65;100.00
11987;BME280;6053;51.382;6.768;2023-08-06T12:41:14;100277.00;;;17.98;100.00
11987;BME280;6053;51.382;6.768;2023-08-06T12:43:43;100270.22;;;17.70;100.00
11987;BME280;6053;51.382;6.768;2023-08-06T12:46:12;100279.97;;;18.06;100.00
11987;BME280;6053;51.382;6.768;2023-08-06T12:48:52;100294.84;;;17.97;100.00
11987;BME280;6053;51.382;6.768;2023-08-06T12:51:21;100294.50;;;18.03;100.00
11987;BME280;6053;51.382;6.768;2023-08-06T12:53:50;100297.69;;;17.52;100.00
11987;BME280;6053;51.382;6.768;2023-08-06T12:56:22;100297.19;;;17.40;100.00
11987;BME280;6053;51.382;6.768;2023-08-06T12:58:57;100312.97;;;17.99;100.00
11987;BME280;6053;51.382;6.768;2023-08-06T13:01:28;100299.03;;;17.60;100.00
11987;BME280;6053;51.382;6.768;2023-08-06T13:04:00;100315.38;;;17.77;100.00
11987;BME280;6053;51.382;6.768;2023-08-06T13:06:53;100320.34;;;17.85;100.00
11987;BME280;6053;51.382;6.768;2023-08-06T13:09:22;100329.69;;;17.60;100.00
11987;BME280;6053;51.382;6.768;2023-08-06T13:11:54;100323.78;;;17.72;100.00
11987;BME280;6053;51.382;6.768;2023-08-06T13:14:23;100325.66;;;17.42;100.00